sensor_id;sensor_type;location;lat;lon;timestamp;temperature;humidity
39067;DHT22;24821;51.988;6.020;2023-08-01T00:00:04;18.00;99.90
39067;DHT22;24821;51.988;6.020;2023-08-01T00:02:32;17.90;99.90
39067;DHT22;24821;51.988;6.020;2023-08-01T00:04:58;17.90;99.90
39067;DHT22;24821;51.988;6.020;2023-08-01T00:07:26;17.90;99.90
39067;DHT22;24821;51.988;6.020;2023-08-01T00:09:51;17.90;99.90
39067;DHT22;24821;51.988;6.020;2023-08-01T00:12:17;17.90;99.90
39067;DHT22;24821;51.988;6.020;2023-08-01T00:14:42;17.90;99.90
39067;DHT22;24821;51.988;6.020;2023-08-01T00:17:08;18.00;99.90
39067;DHT22;24821;51.988;6.020;2023-08-01T00:19:34;17.90;99.90
39067;DHT22;24821;51.988;6.020;2023-08-01T00:21:59;17.90;99.90
39067;DHT22;24821;51.988;6.020;2023-08-01T00:24:25;18.00;99.90
39067;DHT22;24821;51.988;6.020;2023-08-01T00:26:50;18.00;99.90
39067;DHT22;24821;51.988;6.020;2023-08-01T00:29:20;18.00;99.90
39067;DHT22;24821;51.988;6.020;2023-08-01T00:31:46;17.90;99.90
39067;DHT22;24821;51.988;6.020;2023-08-01T00:34:11;17.90;99.90
39067;DHT22;24821;51.988;6.020;2023-08-01T00:36:37;17.90;99.90
39067;DHT22;24821;51.988;6.020;2023-08-01T00:39:02;17.80;99.90
39067;DHT22;24821;51.988;6.020;2023-08-01T00:41:28;17.80;99.90
39067;DHT22;24821;51.988;6.020;2023-08-01T00:43:53;17.80;99.90
39067;DHT22;24821;51.988;6.020;2023-08-01T00:46:19;17.70;99.90
39067;DHT22;24821;51.988;6.020;2023-08-01T00:48:46;17.70;99.90
39067;DHT22;24821;51.988;6.020;2023-08-01T00:51:11;17.70;99.90
39067;DHT22;24821;51.988;6.020;2023-08-01T00:53:37;17.70;99.90
39067;DHT22;24821;51.988;6.020;2023-08-01T00:56:03;17.60;99.90
39067;DHT22;24821;51.988;6.020;2023-08-01T00:58:29;17.60;99.90
39067;DHT22;24821;51.988;6.020;2023-08-01T01:00:55;17.60;99.90
39067;DHT22;24821;51.988;6.020;2023-08-01T01:03:22;17.60;99.90
39067;DHT22;24821;51.988;6.020;2023-08-01T01:08:44;17.60;99.90
39067;DHT22;24821;51.988;6.020;2023-08-01T01:11:11;17.60;99.90
39067;DHT22;24821;51.988;6.020;2023-08-01T01:13:36;17.60;99.90
39067;DHT22;24821;51.988;6.020;2023-08-01T01:16:02;17.60;99.90
39067;DHT22;24821;51.988;6.020;2023-08-01T01:18:28;17.60;99.90
39067;DHT22;24821;51.988;6.020;2023-08-01T01:20:54;17.60;99.90
39067;DHT22;24821;51.988;6.020;2023-08-01T01:23:20;17.50;99.90
39067;DHT22;24821;51.988;6.020;2023-08-01T01:25:47;17.60;99.90
39067;DHT22;24821;51.988;6.020;2023-08-01T01:28:14;17.60;99.90
39067;DHT22;24821;51.988;6.020;2023-08-01T01:30:42;17.50;99.90
39067;DHT22;24821;51.988;6.020;2023-08-01T01:33:09;17.50;99.90
39067;DHT22;24821;51.988;6.020;2023-08-01T01:35:35;17.50;99.90
39067;DHT22;24821;51.988;6.020;2023-08-01T01:38:01;17.50;99.90
39067;DHT22;24821;51.988;6.020;2023-08-01T01:40:29;17.50;99.90
39067;DHT22;24821;51.988;6.020;2023-08-01T01:42:55;17.40;99.90
39067;DHT22;24821;51.988;6.020;2023-08-01T01:45:21;17.40;99.90
39067;DHT22;24821;51.988;6.020;2023-08-01T01:47:46;17.40;99.90
39067;DHT22;24821;51.988;6.020;2023-08-01T01:50:12;17.40;99.90
39067;DHT22;24821;51.988;6.020;2023-08-01T01:52:38;17.40;99.90
39067;DHT22;24821;51.988;6.020;2023-08-01T01:55:03;17.40;99.90
39067;DHT22;24821;51.988;6.020;2023-08-01T01:57:29;17.40;99.90
39067;DHT22;24821;51.988;6.020;2023-08-01T01:59:55;17.40;99.90
39067;DHT22;24821;51.988;6.020;2023-08-01T02:02:20;17.40;99.90
39067;DHT22;24821;51.988;6.020;2023-08-01T02:04:46;17.30;99.90
39067;DHT22;24821;51.988;6.020;2023-08-01T02:07:12;17.30;99.90
39067;DHT22;24821;51.988;6.020;2023-08-01T02:09:39;17.30;99.90
39067;DHT22;24821;51.988;6.020;2023-08-01T02:12:05;17.30;99.90
39067;DHT22;24821;51.988;6.020;2023-08-01T02:14:31;17.20;99.90
39067;DHT22;24821;51.988;6.020;2023-08-01T02:16:56;17.20;99.90
39067;DHT22;24821;51.988;6.020;2023-08-01T02:19:22;17.10;99.90
39067;DHT22;24821;51.988;6.020;2023-08-01T02:21:48;17.10;99.90
39067;DHT22;24821;51.988;6.020;2023-08-01T02:24:13;17.00;99.90
39067;DHT22;24821;51.988;6.020;2023-08-01T02:26:39;17.00;99.90
39067;DHT22;24821;51.988;6.020;2023-08-01T02:29:04;17.00;99.90
39067;DHT22;24821;51.988;6.020;2023-08-01T02:31:30;17.00;99.90
39067;DHT22;24821;51.988;6.020;2023-08-01T02:33:55;16.90;99.90
39067;DHT22;24821;51.988;6.020;2023-08-01T02:36:21;16.90;99.90
39067;DHT22;24821;51.988;6.020;2023-08-01T02:38:46;16.90;99.90
39067;DHT22;24821;51.988;6.020;2023-08-01T02:41:12;16.90;99.90
39067;DHT22;24821;51.988;6.020;2023-08-01T02:43:37;16.90;99.90
39067;DHT22;24821;51.988;6.020;2023-08-01T02:46:03;16.80;99.90
39067;DHT22;24821;51.988;6.020;2023-08-01T02:48:30;16.80;99.90
39067;DHT22;24821;51.988;6.020;2023-08-01T02:50:56;16.80;99.90
39067;DHT22;24821;51.988;6.020;2023-08-01T02:53:22;16.80;99.90
39067;DHT22;24821;51.988;6.020;2023-08-01T02:55:47;16.80;99.90
39067;DHT22;24821;51.988;6.020;2023-08-01T02:58:13;16.80;99.90
39067;DHT22;24821;51.988;6.020;2023-08-01T03:00:38;16.80;99.90
39067;DHT22;24821;51.988;6.020;2023-08-01T03:03:06;16.80;99.90
39067;DHT22;24821;51.988;6.020;2023-08-01T03:05:31;16.70;99.90
39067;DHT22;24821;51.988;6.020;2023-08-01T03:07:57;16.70;99.90
39067;DHT22;24821;51.988;6.020;2023-08-01T03:10:23;16.70;99.90
39067;DHT22;24821;51.988;6.020;2023-08-01T03:12:48;16.70;99.90
39067;DHT22;24821;51.988;6.020;2023-08-01T03:15:14;16.70;99.90
39067;DHT22;24821;51.988;6.020;2023-08-01T03:17:39;16.80;99.90
39067;DHT22;24821;51.988;6.020;2023-08-01T03:20:05;16.80;99.90
39067;DHT22;24821;51.988;6.020;2023-08-01T03:22:37;16.80;99.90
39067;DHT22;24821;51.988;6.020;2023-08-01T03:25:03;16.80;99.90
39067;DHT22;24821;51.988;6.020;2023-08-01T03:27:33;16.80;99.90
39067;DHT22;24821;51.988;6.020;2023-08-01T03:29:58;16.80;99.90
39067;DHT22;24821;51.988;6.020;2023-08-01T03:32:24;16.80;99.90
39067;DHT22;24821;51.988;6.020;2023-08-01T03:34:49;16.90;99.90
39067;DHT22;24821;51.988;6.020;2023-08-01T03:37:16;16.90;99.90
39067;DHT22;24821;51.988;6.020;2023-08-01T03:39:42;16.90;99.90
39067;DHT22;24821;51.988;6.020;2023-08-01T03:42:07;16.90;99.90
39067;DHT22;24821;51.988;6.020;2023-08-01T03:44:33;16.90;99.90
39067;DHT22;24821;51.988;6.020;2023-08-01T03:46:59;16.90;99.90
39067;DHT22;24821;51.988;6.020;2023-08-01T03:49:25;17.00;99.90
39067;DHT22;24821;51.988;6.020;2023-08-01T03:51:50;17.00;99.90
39067;DHT22;24821;51.988;6.020;2023-08-01T03:54:16;17.00;99.90
39067;DHT22;24821;51.988;6.020;2023-08-01T03:56:41;17.00;99.90
39067;DHT22;24821;51.988;6.020;2023-08-01T03:59:10;17.00;99.90
39067;DHT22;24821;51.988;6.020;2023-08-01T04:01:36;17.00;99.90
39067;DHT22;24821;51.988;6.020;2023-08-01T04:04:02;17.00;99.90
39067;DHT22;24821;51.988;6.020;2023-08-01T04:06:28;17.00;99.90
39067;DHT22;24821;51.988;6.020;2023-08-01T04:08:53;17.00;99.90
39067;DHT22;24821;51.988;6.020;2023-08-01T04:11:22;17.00;99.90
39067;DHT22;24821;51.988;6.020;2023-08-01T04:13:47;17.10;99.90
39067;DHT22;24821;51.988;6.020;2023-08-01T04:16:13;17.10;99.90
39067;DHT22;24821;51.988;6.020;2023-08-01T04:18:38;17.10;99.90
39067;DHT22;24821;51.988;6.020;2023-08-01T04:21:04;17.10;99.90
39067;DHT22;24821;51.988;6.020;2023-08-01T04:23:30;17.10;99.90
39067;DHT22;24821;51.988;6.020;2023-08-01T04:25:55;17.10;99.90
39067;DHT22;24821;51.988;6.020;2023-08-01T04:28:21;17.20;99.90
39067;DHT22;24821;51.988;6.020;2023-08-01T04:30:50;17.10;99.90
39067;DHT22;24821;51.988;6.020;2023-08-01T04:33:16;17.10;99.90
39067;DHT22;24821;51.988;6.020;2023-08-01T04:35:41;17.10;99.90
39067;DHT22;24821;51.988;6.020;2023-08-01T04:38:07;17.10;99.90
39067;DHT22;24821;51.988;6.020;2023-08-01T04:40:34;17.10;99.90
39067;DHT22;24821;51.988;6.020;2023-08-01T04:43:01;17.10;99.90
39067;DHT22;24821;51.988;6.020;2023-08-01T04:45:27;17.20;99.90
39067;DHT22;24821;51.988;6.020;2023-08-01T04:47:52;17.10;99.90
39067;DHT22;24821;51.988;6.020;2023-08-01T04:50:18;17.10;99.90
39067;DHT22;24821;51.988;6.020;2023-08-01T04:52:44;17.10;99.90
39067;DHT22;24821;51.988;6.020;2023-08-01T04:55:09;17.10;99.90
39067;DHT22;24821;51.988;6.020;2023-08-01T04:57:35;17.10;99.90
39067;DHT22;24821;51.988;6.020;2023-08-01T05:00:01;17.10;99.90
39067;DHT22;24821;51.988;6.020;2023-08-01T05:02:26;17.10;99.90
39067;DHT22;24821;51.988;6.020;2023-08-01T05:04:52;17.10;99.90
39067;DHT22;24821;51.988;6.020;2023-08-01T05:07:18;17.20;99.90
39067;DHT22;24821;51.988;6.020;2023-08-01T05:09:43;17.10;99.90
39067;DHT22;24821;51.988;6.020;2023-08-01T05:12:09;17.10;99.90
39067;DHT22;24821;51.988;6.020;2023-08-01T05:14:34;17.20;99.90
39067;DHT22;24821;51.988;6.020;2023-08-01T05:17:00;17.10;99.90
39067;DHT22;24821;51.988;6.020;2023-08-01T05:19:26;17.20;99.90
39067;DHT22;24821;51.988;6.020;2023-08-01T05:21:51;17.20;99.90
39067;DHT22;24821;51.988;6.020;2023-08-01T05:24:17;17.20;99.90
39067;DHT22;24821;51.988;6.020;2023-08-01T05:26:42;17.20;99.90
39067;DHT22;24821;51.988;6.020;2023-08-01T05:29:08;17.20;99.90
39067;DHT22;24821;51.988;6.020;2023-08-01T05:31:34;17.30;99.90
39067;DHT22;24821;51.988;6.020;2023-08-01T05:33:59;17.30;99.90
39067;DHT22;24821;51.988;6.020;2023-08-01T05:36:25;17.30;99.90
39067;DHT22;24821;51.988;6.020;2023-08-01T05:38:50;17.30;99.90
39067;DHT22;24821;51.988;6.020;2023-08-01T05:41:16;17.40;99.90
39067;DHT22;24821;51.988;6.020;2023-08-01T05:43:41;17.40;99.90
39067;DHT22;24821;51.988;6.020;2023-08-01T05:46:07;17.40;99.90
39067;DHT22;24821;51.988;6.020;2023-08-01T05:48:33;17.40;99.90
39067;DHT22;24821;51.988;6.020;2023-08-01T05:50:58;17.50;99.90
39067;DHT22;24821;51.988;6.020;2023-08-01T05:53:24;17.50;99.90
39067;DHT22;24821;51.988;6.020;2023-08-01T05:55:49;17.70;99.90
39067;DHT22;24821;51.988;6.020;2023-08-01T05:58:15;17.80;99.90
39067;DHT22;24821;51.988;6.020;2023-08-01T06:00:41;17.80;99.90
39067;DHT22;24821;51.988;6.020;2023-08-01T06:03:06;17.70;99.90
39067;DHT22;24821;51.988;6.020;2023-08-01T06:05:32;17.70;99.90
39067;DHT22;24821;51.988;6.020;2023-08-01T06:07:58;17.70;99.90
39067;DHT22;24821;51.988;6.020;2023-08-01T06:10:24;17.80;99.90
39067;DHT22;24821;51.988;6.020;2023-08-01T06:12:49;17.90;99.90
39067;DHT22;24821;51.988;6.020;2023-08-01T06:15:15;17.90;99.90
39067;DHT22;24821;51.988;6.020;2023-08-01T06:17:41;17.90;99.90
39067;DHT22;24821;51.988;6.020;2023-08-01T06:20:07;17.90;99.90
39067;DHT22;24821;51.988;6.020;2023-08-01T06:22:33;17.90;99.90
39067;DHT22;24821;51.988;6.020;2023-08-01T06:24:58;17.90;99.90
39067;DHT22;24821;51.988;6.020;2023-08-01T06:27:24;17.90;99.90
39067;DHT22;24821;51.988;6.020;2023-08-01T06:29:50;17.90;99.90
39067;DHT22;24821;51.988;6.020;2023-08-01T06:32:16;18.00;99.90
39067;DHT22;24821;51.988;6.020;2023-08-01T06:34:41;18.00;99.90
39067;DHT22;24821;51.988;6.020;2023-08-01T06:37:07;18.00;99.90
39067;DHT22;24821;51.988;6.020;2023-08-01T06:39:32;18.00;99.90
39067;DHT22;24821;51.988;6.020;2023-08-01T06:41:58;18.00;99.90
39067;DHT22;24821;51.988;6.020;2023-08-01T06:44:24;18.00;99.90
39067;DHT22;24821;51.988;6.020;2023-08-01T06:46:49;18.00;99.90
39067;DHT22;24821;51.988;6.020;2023-08-01T06:49:15;18.10;99.90
39067;DHT22;24821;51.988;6.020;2023-08-01T06:51:40;18.10;99.90
39067;DHT22;24821;51.988;6.020;2023-08-01T06:54:08;18.20;99.90
39067;DHT22;24821;51.988;6.020;2023-08-01T06:56:33;18.20;99.90
39067;DHT22;24821;51.988;6.020;2023-08-01T06:58:59;18.30;99.90
39067;DHT22;24821;51.988;6.020;2023-08-01T07:01:24;18.40;99.90
39067;DHT22;24821;51.988;6.020;2023-08-01T07:03:50;18.50;99.90
39067;DHT22;24821;51.988;6.020;2023-08-01T07:06:17;18.50;99.90
39067;DHT22;24821;51.988;6.020;2023-08-01T07:08:43;18.60;99.90
39067;DHT22;24821;51.988;6.020;2023-08-01T07:11:09;18.60;99.90
39067;DHT22;24821;51.988;6.020;2023-08-01T07:13:34;18.70;99.90
39067;DHT22;24821;51.988;6.020;2023-08-01T07:16:00;18.70;99.90
39067;DHT22;24821;51.988;6.020;2023-08-01T07:18:26;18.80;99.90
39067;DHT22;24821;51.988;6.020;2023-08-01T07:21:04;18.80;99.90
39067;DHT22;24821;51.988;6.020;2023-08-01T07:23:31;18.80;99.90
39067;DHT22;24821;51.988;6.020;2023-08-01T07:25:56;18.70;99.90
39067;DHT22;24821;51.988;6.020;2023-08-01T07:28:22;18.70;99.90
39067;DHT22;24821;51.988;6.020;2023-08-01T07:30:48;18.70;99.90
39067;DHT22;24821;51.988;6.020;2023-08-01T07:33:13;18.70;99.90
39067;DHT22;24821;51.988;6.020;2023-08-01T07:35:39;18.80;99.90
39067;DHT22;24821;51.988;6.020;2023-08-01T07:38:04;18.90;99.90
39067;DHT22;24821;51.988;6.020;2023-08-01T07:40:30;19.00;99.90
39067;DHT22;24821;51.988;6.020;2023-08-01T07:42:55;18.90;99.90
39067;DHT22;24821;51.988;6.020;2023-08-01T07:45:21;19.00;99.90
39067;DHT22;24821;51.988;6.020;2023-08-01T07:47:47;19.10;99.90
39067;DHT22;24821;51.988;6.020;2023-08-01T07:50:13;19.20;99.90
39067;DHT22;24821;51.988;6.020;2023-08-01T07:52:38;19.20;99.90
39067;DHT22;24821;51.988;6.020;2023-08-01T07:55:04;19.30;99.90
39067;DHT22;24821;51.988;6.020;2023-08-01T07:57:30;19.40;99.90
39067;DHT22;24821;51.988;6.020;2023-08-01T07:59:56;19.50;99.90
39067;DHT22;24821;51.988;6.020;2023-08-01T08:02:21;19.50;99.90
39067;DHT22;24821;51.988;6.020;2023-08-01T08:04:47;19.70;99.90
39067;DHT22;24821;51.988;6.020;2023-08-01T08:07:13;20.10;99.90
39067;DHT22;24821;51.988;6.020;2023-08-01T08:09:39;20.50;99.90
39067;DHT22;24821;51.988;6.020;2023-08-01T08:12:05;20.80;99.90
39067;DHT22;24821;51.988;6.020;2023-08-01T08:14:31;21.10;99.90
39067;DHT22;24821;51.988;6.020;2023-08-01T08:16:56;21.30;99.90
39067;DHT22;24821;51.988;6.020;2023-08-01T08:19:22;21.40;99.90
39067;DHT22;24821;51.988;6.020;2023-08-01T08:21:49;21.60;99.90
39067;DHT22;24821;51.988;6.020;2023-08-01T08:24:15;21.80;99.90
39067;DHT22;24821;51.988;6.020;2023-08-01T08:26:40;21.80;99.90
39067;DHT22;24821;51.988;6.020;2023-08-01T08:29:06;21.70;99.90
39067;DHT22;24821;51.988;6.020;2023-08-01T08:31:32;21.50;99.90
39067;DHT22;24821;51.988;6.020;2023-08-01T08:33:57;21.20;99.90
39067;DHT22;24821;51.988;6.020;2023-08-01T08:36:23;20.50;99.90
39067;DHT22;24821;51.988;6.020;2023-08-01T08:38:48;20.00;99.90
39067;DHT22;24821;51.988;6.020;2023-08-01T08:41:21;19.60;99.90
39067;DHT22;24821;51.988;6.020;2023-08-01T08:43:49;19.40;99.90
39067;DHT22;24821;51.988;6.020;2023-08-01T08:46:16;19.50;99.90
39067;DHT22;24821;51.988;6.020;2023-08-01T08:48:42;20.00;99.90
39067;DHT22;24821;51.988;6.020;2023-08-01T08:51:09;20.60;99.90
39067;DHT22;24821;51.988;6.020;2023-08-01T08:53:36;21.10;99.90
39067;DHT22;24821;51.988;6.020;2023-08-01T08:56:02;21.50;99.90
39067;DHT22;24821;51.988;6.020;2023-08-01T08:58:31;21.60;99.90
39067;DHT22;24821;51.988;6.020;2023-08-01T09:00:58;21.90;99.90
39067;DHT22;24821;51.988;6.020;2023-08-01T09:03:25;22.20;99.90
39067;DHT22;24821;51.988;6.020;2023-08-01T09:06:02;22.30;99.90
39067;DHT22;24821;51.988;6.020;2023-08-01T09:08:30;22.20;99.90
39067;DHT22;24821;51.988;6.020;2023-08-01T09:10:58;22.30;99.90
39067;DHT22;24821;51.988;6.020;2023-08-01T09:13:23;22.50;99.90
39067;DHT22;24821;51.988;6.020;2023-08-01T09:15:49;22.70;99.60
39067;DHT22;24821;51.988;6.020;2023-08-01T09:18:15;22.70;99.90
39067;DHT22;24821;51.988;6.020;2023-08-01T09:20:50;22.60;99.60
39067;DHT22;24821;51.988;6.020;2023-08-01T09:23:17;22.70;99.90
39067;DHT22;24821;51.988;6.020;2023-08-01T09:25:43;22.70;99.30
39067;DHT22;24821;51.988;6.020;2023-08-01T09:28:19;22.70;98.60
39067;DHT22;24821;51.988;6.020;2023-08-01T09:30:54;23.00;99.10
39067;DHT22;24821;51.988;6.020;2023-08-01T09:33:23;23.20;98.70
39067;DHT22;24821;51.988;6.020;2023-08-01T09:35:52;23.20;97.60
39067;DHT22;24821;51.988;6.020;2023-08-01T09:38:18;23.40;98.50
39067;DHT22;24821;51.988;6.020;2023-08-01T09:40:45;23.40;96.70
39067;DHT22;24821;51.988;6.020;2023-08-01T09:43:12;23.20;97.20
39067;DHT22;24821;51.988;6.020;2023-08-01T09:45:48;23.00;96.70
39067;DHT22;24821;51.988;6.020;2023-08-01T09:48:23;22.80;97.00
39067;DHT22;24821;51.988;6.020;2023-08-01T09:50:50;22.50;96.90
39067;DHT22;24821;51.988;6.020;2023-08-01T09:53:15;22.30;96.80
39067;DHT22;24821;51.988;6.020;2023-08-01T09:55:43;22.00;97.70
39067;DHT22;24821;51.988;6.020;2023-08-01T09:58:13;22.00;97.70
39067;DHT22;24821;51.988;6.020;2023-08-01T10:00:39;22.10;97.50
39067;DHT22;24821;51.988;6.020;2023-08-01T10:03:05;22.30;97.40
39067;DHT22;24821;51.988;6.020;2023-08-01T10:05:32;22.40;97.40
39067;DHT22;24821;51.988;6.020;2023-08-01T10:08:00;22.60;97.30
39067;DHT22;24821;51.988;6.020;2023-08-01T10:10:27;22.70;96.80
39067;DHT22;24821;51.988;6.020;2023-08-01T10:12:56;22.60;96.70
39067;DHT22;24821;51.988;6.020;2023-08-01T10:15:24;22.50;96.60
39067;DHT22;24821;51.988;6.020;2023-08-01T10:17:50;22.60;97.10
39067;DHT22;24821;51.988;6.020;2023-08-01T10:20:16;22.70;96.80
39067;DHT22;24821;51.988;6.020;2023-08-01T10:22:43;22.60;96.30
39067;DHT22;24821;51.988;6.020;2023-08-01T10:25:10;22.80;97.00
39067;DHT22;24821;51.988;6.020;2023-08-01T10:27:36;23.10;97.20
39067;DHT22;24821;51.988;6.020;2023-08-01T10:30:03;23.30;96.00
39067;DHT22;24821;51.988;6.020;2023-08-01T10:32:32;23.40;95.80
39067;DHT22;24821;51.988;6.020;2023-08-01T10:34:58;23.40;94.90
39067;DHT22;24821;51.988;6.020;2023-08-01T10:37:24;23.20;94.80
39067;DHT22;24821;51.988;6.020;2023-08-01T10:39:59;23.20;95.80
39067;DHT22;24821;51.988;6.020;2023-08-01T10:42:25;23.30;95.60
39067;DHT22;24821;51.988;6.020;2023-08-01T10:44:51;23.30;95.00
39067;DHT22;24821;51.988;6.020;2023-08-01T10:47:26;23.20;95.30
39067;DHT22;24821;51.988;6.020;2023-08-01T10:49:57;23.20;95.40
39067;DHT22;24821;51.988;6.020;2023-08-01T10:52:23;23.20;94.00
39067;DHT22;24821;51.988;6.020;2023-08-01T10:55:01;23.20;94.70
39067;DHT22;24821;51.988;6.020;2023-08-01T10:57:31;23.20;94.30
39067;DHT22;24821;51.988;6.020;2023-08-01T10:59:58;23.10;94.50
39067;DHT22;24821;51.988;6.020;2023-08-01T11:02:25;23.10;94.40
39067;DHT22;24821;51.988;6.020;2023-08-01T11:05:04;23.00;94.00
39067;DHT22;24821;51.988;6.020;2023-08-01T11:07:30;22.80;94.70
39067;DHT22;24821;51.988;6.020;2023-08-01T11:10:04;22.80;94.80
39067;DHT22;24821;51.988;6.020;2023-08-01T11:12:37;22.80;95.80
39067;DHT22;24821;51.988;6.020;2023-08-01T11:15:04;22.90;95.80
39067;DHT22;24821;51.988;6.020;2023-08-01T11:17:31;22.90;95.40
39067;DHT22;24821;51.988;6.020;2023-08-01T11:20:17;22.80;95.30
39067;DHT22;24821;51.988;6.020;2023-08-01T11:25:15;22.70;95.40
39067;DHT22;24821;51.988;6.020;2023-08-01T11:27:40;22.80;96.00
39067;DHT22;24821;51.988;6.020;2023-08-01T11:30:06;23.00;96.30
39067;DHT22;24821;51.988;6.020;2023-08-01T11:32:33;23.20;95.20
39067;DHT22;24821;51.988;6.020;2023-08-01T11:35:00;23.20;94.40
39067;DHT22;24821;51.988;6.020;2023-08-01T11:37:26;23.20;94.00
39067;DHT22;24821;51.988;6.020;2023-08-01T11:39:52;23.20;93.90
39067;DHT22;24821;51.988;6.020;2023-08-01T11:42:18;23.30;94.40
39067;DHT22;24821;51.988;6.020;2023-08-01T11:44:44;23.50;94.70
39067;DHT22;24821;51.988;6.020;2023-08-01T11:47:14;23.70;94.30
39067;DHT22;24821;51.988;6.020;2023-08-01T11:49:48;23.70;93.80
39067;DHT22;24821;51.988;6.020;2023-08-01T11:52:27;23.60;93.50
39067;DHT22;24821;51.988;6.020;2023-08-01T11:54:53;23.50;93.40
39067;DHT22;24821;51.988;6.020;2023-08-01T11:57:23;23.50;94.00
39067;DHT22;24821;51.988;6.020;2023-08-01T11:59:50;23.50;94.00
39067;DHT22;24821;51.988;6.020;2023-08-01T12:02:27;23.60;93.80
39067;DHT22;24821;51.988;6.020;2023-08-01T12:04:55;23.50;93.80
39067;DHT22;24821;51.988;6.020;2023-08-01T12:07:21;23.40;93.80
39067;DHT22;24821;51.988;6.020;2023-08-01T12:12:22;23.10;93.30
39067;DHT22;24821;51.988;6.020;2023-08-01T12:14:47;22.80;93.00
39067;DHT22;24821;51.988;6.020;2023-08-01T12:17:13;22.70;93.70
39067;DHT22;24821;51.988;6.020;2023-08-01T12:19:38;22.80;94.60
39067;DHT22;24821;51.988;6.020;2023-08-01T12:22:04;23.00;93.70
39067;DHT22;24821;51.988;6.020;2023-08-01T12:24:29;22.90;93.20
39067;DHT22;24821;51.988;6.020;2023-08-01T12:26:55;22.80;93.40
39067;DHT22;24821;51.988;6.020;2023-08-01T12:29:21;22.50;93.70
39067;DHT22;24821;51.988;6.020;2023-08-01T12:31:46;22.30;95.00
39067;DHT22;24821;51.988;6.020;2023-08-01T12:34:12;22.20;94.80
39067;DHT22;24821;51.988;6.020;2023-08-01T12:36:38;22.00;94.60
39067;DHT22;24821;51.988;6.020;2023-08-01T12:39:03;21.80;94.50
39067;DHT22;24821;51.988;6.020;2023-08-01T12:41:30;21.70;94.60
39067;DHT22;24821;51.988;6.020;2023-08-01T12:43:56;21.60;94.60
39067;DHT22;24821;51.988;6.020;2023-08-01T12:46:21;21.50;94.60
39067;DHT22;24821;51.988;6.020;2023-08-01T12:48:47;21.50;94.70
39067;DHT22;24821;51.988;6.020;2023-08-01T12:51:12;21.50;94.90
39067;DHT22;24821;51.988;6.020;2023-08-01T12:53:39;21.60;94.80
39067;DHT22;24821;51.988;6.020;2023-08-01T12:56:05;21.80;94.90
39067;DHT22;24821;51.988;6.020;2023-08-01T12:58:31;22.00;95.60
39067;DHT22;24821;51.988;6.020;2023-08-01T13:00:57;22.00;94.80
39067;DHT22;24821;51.988;6.020;2023-08-01T13:03:22;22.00;94.60
39067;DHT22;24821;51.988;6.020;2023-08-01T13:05:48;22.10;95.10
39067;DHT22;24821;51.988;6.020;2023-08-01T13:08:14;22.40;94.90
39067;DHT22;24821;51.988;6.020;2023-08-01T13:10:39;22.50;94.30
39067;DHT22;24821;51.988;6.020;2023-08-01T13:13:05;22.30;93.90
39067;DHT22;24821;51.988;6.020;2023-08-01T13:15:31;22.20;94.40
39067;DHT22;24821;51.988;6.020;2023-08-01T13:17:56;22.20;94.70
39067;DHT22;24821;51.988;6.020;2023-08-01T13:20:22;22.40;95.60
39067;DHT22;24821;51.988;6.020;2023-08-01T13:22:49;22.70;95.20
39067;DHT22;24821;51.988;6.020;2023-08-01T13:25:16;22.70;94.10
39067;DHT22;24821;51.988;6.020;2023-08-01T13:27:42;22.80;94.50
39067;DHT22;24821;51.988;6.020;2023-08-01T13:30:07;22.90;94.60
39067;DHT22;24821;51.988;6.020;2023-08-01T13:32:34;22.90;93.90
39067;DHT22;24821;51.988;6.020;2023-08-01T13:34:59;23.00;93.60
39067;DHT22;24821;51.988;6.020;2023-08-01T13:37:25;22.90;93.20
39067;DHT22;24821;51.988;6.020;2023-08-01T13:39:51;22.80;92.90
39067;DHT22;24821;51.988;6.020;2023-08-01T13:42:17;22.80;93.10
39067;DHT22;24821;51.988;6.020;2023-08-01T13:44:42;22.90;93.40
39067;DHT22;24821;51.988;6.020;2023-08-01T13:47:08;23.20;92.20
39067;DHT22;24821;51.988;6.020;2023-08-01T13:49:33;23.30;92.70
39067;DHT22;24821;51.988;6.020;2023-08-01T13:51:59;23.40;93.00
39067;DHT22;24821;51.988;6.020;2023-08-01T13:54:26;23.50;92.00
39067;DHT22;24821;51.988;6.020;2023-08-01T13:56:51;23.30;92.00
39067;DHT22;24821;51.988;6.020;2023-08-01T13:59:18;23.10;91.60
39067;DHT22;24821;51.988;6.020;2023-08-01T14:01:44;23.00;92.10
39067;DHT22;24821;51.988;6.020;2023-08-01T14:04:10;22.80;91.80
39067;DHT22;24821;51.988;6.020;2023-08-01T14:06:36;22.70;91.90
39067;DHT22;24821;51.988;6.020;2023-08-01T14:09:01;22.40;92.00
39067;DHT22;24821;51.988;6.020;2023-08-01T14:11:27;22.30;92.70
39067;DHT22;24821;51.988;6.020;2023-08-01T14:13:52;22.20;93.20
39067;DHT22;24821;51.988;6.020;2023-08-01T14:16:18;22.10;93.20
39067;DHT22;24821;51.988;6.020;2023-08-01T14:18:44;22.10;92.90
39067;DHT22;24821;51.988;6.020;2023-08-01T14:21:09;22.20;93.10
39067;DHT22;24821;51.988;6.020;2023-08-01T14:23:35;22.40;93.10
39067;DHT22;24821;51.988;6.020;2023-08-01T14:26:03;22.60;92.70
39067;DHT22;24821;51.988;6.020;2023-08-01T14:28:29;22.90;92.20
39067;DHT22;24821;51.988;6.020;2023-08-01T14:30:55;23.10;91.70
39067;DHT22;24821;51.988;6.020;2023-08-01T14:33:20;23.10;92.20
39067;DHT22;24821;51.988;6.020;2023-08-01T14:35:46;23.10;91.40
39067;DHT22;24821;51.988;6.020;2023-08-01T14:38:12;22.90;92.20
39067;DHT22;24821;51.988;6.020;2023-08-01T14:40:37;22.70;91.90
39067;DHT22;24821;51.988;6.020;2023-08-01T14:43:04;22.60;92.40
39067;DHT22;24821;51.988;6.020;2023-08-01T14:45:30;22.60;92.70
39067;DHT22;24821;51.988;6.020;2023-08-01T14:47:56;22.60;92.90
39067;DHT22;24821;51.988;6.020;2023-08-01T14:50:22;22.80;93.40
39067;DHT22;24821;51.988;6.020;2023-08-01T14:52:47;23.00;92.60
39067;DHT22;24821;51.988;6.020;2023-08-01T14:55:13;23.20;91.70
39067;DHT22;24821;51.988;6.020;2023-08-01T14:57:38;23.20;91.00
39067;DHT22;24821;51.988;6.020;2023-08-01T15:00:05;23.20;91.60
39067;DHT22;24821;51.988;6.020;2023-08-01T15:02:30;23.30;91.30
39067;DHT22;24821;51.988;6.020;2023-08-01T15:04:56;23.20;90.50
39067;DHT22;24821;51.988;6.020;2023-08-01T15:07:23;23.10;90.60
39067;DHT22;24821;51.988;6.020;2023-08-01T15:09:50;22.90;90.60
39067;DHT22;24821;51.988;6.020;2023-08-01T15:12:16;22.60;91.40
39067;DHT22;24821;51.988;6.020;2023-08-01T15:14:42;22.40;91.60
39067;DHT22;24821;51.988;6.020;2023-08-01T15:17:07;22.30;92.00
39067;DHT22;24821;51.988;6.020;2023-08-01T15:19:34;22.10;92.20
39067;DHT22;24821;51.988;6.020;2023-08-01T15:22:00;22.00;92.90
39067;DHT22;24821;51.988;6.020;2023-08-01T15:24:25;21.90;92.90
39067;DHT22;24821;51.988;6.020;2023-08-01T15:26:51;21.80;92.80
39067;DHT22;24821;51.988;6.020;2023-08-01T15:29:16;21.70;92.90
39067;DHT22;24821;51.988;6.020;2023-08-01T15:31:42;21.60;93.10